sensor_id;sensor_type;location;lat;lon;timestamp;temperature;humidity
18815;DHT22;76351;44.818;20.462;2024-03-29T00:01:44;21.20;36.50
18815;DHT22;76351;44.818;20.462;2024-03-29T00:04:11;21.20;36.60
18815;DHT22;76351;44.818;20.462;2024-03-29T00:06:42;21.20;36.40
18815;DHT22;76351;44.818;20.462;2024-03-29T00:09:08;21.20;36.90
18815;DHT22;76351;44.818;20.462;2024-03-29T00:11:35;21.10;36.80
18815;DHT22;76351;44.818;20.462;2024-03-29T00:14:01;21.10;36.80
18815;DHT22;76351;44.818;20.462;2024-03-29T00:16:28;21.10;36.80
18815;DHT22;76351;44.818;20.462;2024-03-29T00:18:54;21.10;36.10
18815;DHT22;76351;44.818;20.462;2024-03-29T00:21:21;21.10;36.70
18815;DHT22;76351;44.818;20.462;2024-03-29T00:23:49;21.10;37.00
18815;DHT22;76351;44.818;20.462;2024-03-29T00:26:15;21.10;37.00
18815;DHT22;76351;44.818;20.462;2024-03-29T00:28:41;21.10;37.00
18815;DHT22;76351;44.818;20.462;2024-03-29T00:31:09;21.10;37.20
18815;DHT22;76351;44.818;20.462;2024-03-29T00:33:35;21.10;37.00
18815;DHT22;76351;44.818;20.462;2024-03-29T00:36:02;21.10;36.80
18815;DHT22;76351;44.818;20.462;2024-03-29T00:38:28;21.10;36.70
18815;DHT22;76351;44.818;20.462;2024-03-29T00:40:56;21.10;37.10
18815;DHT22;76351;44.818;20.462;2024-03-29T00:43:25;21.20;37.10
18815;DHT22;76351;44.818;20.462;2024-03-29T00:45:51;21.20;37.10
18815;DHT22;76351;44.818;20.462;2024-03-29T00:48:18;21.20;36.40
18815;DHT22;76351;44.818;20.462;2024-03-29T00:50:44;21.20;37.20
18815;DHT22;76351;44.818;20.462;2024-03-29T00:53:10;21.20;37.40
18815;DHT22;76351;44.818;20.462;2024-03-29T00:55:37;21.20;37.40
18815;DHT22;76351;44.818;20.462;2024-03-29T00:58:05;21.20;37.40
18815;DHT22;76351;44.818;20.462;2024-03-29T01:00:31;21.20;37.20
18815;DHT22;76351;44.818;20.462;2024-03-29T01:02:58;21.20;37.00
18815;DHT22;76351;44.818;20.462;2024-03-29T01:05:24;21.20;37.20
18815;DHT22;76351;44.818;20.462;2024-03-29T01:07:51;21.20;37.50
18815;DHT22;76351;44.818;20.462;2024-03-29T01:10:17;21.20;37.30
18815;DHT22;76351;44.818;20.462;2024-03-29T01:12:44;21.20;37.10
18815;DHT22;76351;44.818;20.462;2024-03-29T01:15:12;21.20;37.50
18815;DHT22;76351;44.818;20.462;2024-03-29T01:17:39;21.20;37.50
18815;DHT22;76351;44.818;20.462;2024-03-29T01:20:06;21.20;37.50
18815;DHT22;76351;44.818;20.462;2024-03-29T01:22:32;21.20;37.50
18815;DHT22;76351;44.818;20.462;2024-03-29T01:24:59;21.20;37.20
18815;DHT22;76351;44.818;20.462;2024-03-29T01:27:25;21.20;37.50
18815;DHT22;76351;44.818;20.462;2024-03-29T01:29:52;21.20;37.50
18815;DHT22;76351;44.818;20.462;2024-03-29T01:32:20;21.20;37.50
18815;DHT22;76351;44.818;20.462;2024-03-29T01:34:46;21.30;37.70
18815;DHT22;76351;44.818;20.462;2024-03-29T01:37:12;21.20;37.60
18815;DHT22;76351;44.818;20.462;2024-03-29T01:39:39;21.20;37.70
18815;DHT22;76351;44.818;20.462;2024-03-29T01:42:05;21.20;37.80
18815;DHT22;76351;44.818;20.462;2024-03-29T01:44:32;21.20;37.90
18815;DHT22;76351;44.818;20.462;2024-03-29T01:47:00;21.20;37.70
18815;DHT22;76351;44.818;20.462;2024-03-29T01:49:29;21.20;37.50
18815;DHT22;76351;44.818;20.462;2024-03-29T01:51:57;21.10;37.70
18815;DHT22;76351;44.818;20.462;2024-03-29T01:54:25;21.20;38.00
18815;DHT22;76351;44.818;20.462;2024-03-29T01:56:52;21.20;37.90
18815;DHT22;76351;44.818;20.462;2024-03-29T01:59:21;21.20;38.00
18815;DHT22;76351;44.818;20.462;2024-03-29T02:01:49;21.20;38.20
18815;DHT22;76351;44.818;20.462;2024-03-29T02:04:17;21.30;38.10
18815;DHT22;76351;44.818;20.462;2024-03-29T02:06:46;21.30;37.90
18815;DHT22;76351;44.818;20.462;2024-03-29T02:09:13;21.30;38.30
18815;DHT22;76351;44.818;20.462;2024-03-29T02:11:40;21.30;37.80
18815;DHT22;76351;44.818;20.462;2024-03-29T02:14:08;21.40;38.20
18815;DHT22;76351;44.818;20.462;2024-03-29T02:16:35;21.30;38.10
18815;DHT22;76351;44.818;20.462;2024-03-29T02:19:33;21.40;38.10
18815;DHT22;76351;44.818;20.462;2024-03-29T02:22:32;21.40;38.00
18815;DHT22;76351;44.818;20.462;2024-03-29T02:25:25;21.40;38.00
18815;DHT22;76351;44.818;20.462;2024-03-29T02:28:30;21.40;36.90
18815;DHT22;76351;44.818;20.462;2024-03-29T02:31:39;21.40;38.50
18815;DHT22;76351;44.818;20.462;2024-03-29T02:34:06;21.40;37.20
18815;DHT22;76351;44.818;20.462;2024-03-29T02:36:35;21.50;37.40
18815;DHT22;76351;44.818;20.462;2024-03-29T02:39:05;21.40;38.30
18815;DHT22;76351;44.818;20.462;2024-03-29T02:41:37;21.40;38.10
18815;DHT22;76351;44.818;20.462;2024-03-29T02:44:05;21.40;39.10
18815;DHT22;76351;44.818;20.462;2024-03-29T02:46:31;21.40;38.50
18815;DHT22;76351;44.818;20.462;2024-03-29T02:48:58;21.40;38.50
18815;DHT22;76351;44.818;20.462;2024-03-29T02:51:25;21.40;38.30
18815;DHT22;76351;44.818;20.462;2024-03-29T02:53:52;21.40;38.60
18815;DHT22;76351;44.818;20.462;2024-03-29T02:56:19;21.30;39.40
18815;DHT22;76351;44.818;20.462;2024-03-29T02:58:51;21.30;39.20
18815;DHT22;76351;44.818;20.462;2024-03-29T03:01:17;21.30;39.80
18815;DHT22;76351;44.818;20.462;2024-03-29T03:03:45;21.30;39.90
18815;DHT22;76351;44.818;20.462;2024-03-29T03:06:11;21.20;39.40
18815;DHT22;76351;44.818;20.462;2024-03-29T03:08:39;21.00;40.10
18815;DHT22;76351;44.818;20.462;2024-03-29T03:11:23;20.90;40.00
18815;DHT22;76351;44.818;20.462;2024-03-29T03:13:52;20.80;40.00
18815;DHT22;76351;44.818;20.462;2024-03-29T03:16:20;20.60;40.50
18815;DHT22;76351;44.818;20.462;2024-03-29T03:18:49;20.40;40.70
18815;DHT22;76351;44.818;20.462;2024-03-29T03:21:17;20.30;41.40
18815;DHT22;76351;44.818;20.462;2024-03-29T03:23:44;20.10;41.70
18815;DHT22;76351;44.818;20.462;2024-03-29T03:26:10;20.00;41.50
18815;DHT22;76351;44.818;20.462;2024-03-29T03:28:38;19.80;41.70
18815;DHT22;76351;44.818;20.462;2024-03-29T03:31:06;19.60;41.50
18815;DHT22;76351;44.818;20.462;2024-03-29T03:33:35;19.50;41.90
18815;DHT22;76351;44.818;20.462;2024-03-29T03:36:01;19.40;42.70
18815;DHT22;76351;44.818;20.462;2024-03-29T03:38:29;19.20;42.00
18815;DHT22;76351;44.818;20.462;2024-03-29T03:40:55;19.10;42.30
18815;DHT22;76351;44.818;20.462;2024-03-29T03:43:23;19.00;42.60
18815;DHT22;76351;44.818;20.462;2024-03-29T03:45:49;18.90;42.20
18815;DHT22;76351;44.818;20.462;2024-03-29T03:48:18;18.80;43.10
18815;DHT22;76351;44.818;20.462;2024-03-29T03:50:45;18.70;42.90
18815;DHT22;76351;44.818;20.462;2024-03-29T03:53:12;18.60;42.80
18815;DHT22;76351;44.818;20.462;2024-03-29T03:55:38;18.60;43.50
18815;DHT22;76351;44.818;20.462;2024-03-29T03:58:06;18.50;44.60
18815;DHT22;76351;44.818;20.462;2024-03-29T04:00:33;18.50;43.70
18815;DHT22;76351;44.818;20.462;2024-03-29T04:03:01;18.40;43.90
18815;DHT22;76351;44.818;20.462;2024-03-29T04:05:31;18.40;43.50
18815;DHT22;76351;44.818;20.462;2024-03-29T04:08:01;18.30;44.10
18815;DHT22;76351;44.818;20.462;2024-03-29T04:10:38;18.30;44.00
18815;DHT22;76351;44.818;20.462;2024-03-29T04:13:06;18.30;44.70
18815;DHT22;76351;44.818;20.462;2024-03-29T04:15:32;18.30;44.20
18815;DHT22;76351;44.818;20.462;2024-03-29T04:17:59;18.30;44.10
18815;DHT22;76351;44.818;20.462;2024-03-29T04:20:26;18.30;44.60
18815;DHT22;76351;44.818;20.462;2024-03-29T04:22:55;18.20;44.70
18815;DHT22;76351;44.818;20.462;2024-03-29T04:25:22;18.20;45.00
18815;DHT22;76351;44.818;20.462;2024-03-29T04:27:49;18.20;44.80
18815;DHT22;76351;44.818;20.462;2024-03-29T04:30:16;18.20;44.70
18815;DHT22;76351;44.818;20.462;2024-03-29T04:32:43;18.20;45.00
18815;DHT22;76351;44.818;20.462;2024-03-29T04:35:10;18.10;44.80
18815;DHT22;76351;44.818;20.462;2024-03-29T04:37:37;18.10;45.00
18815;DHT22;76351;44.818;20.462;2024-03-29T04:40:07;18.10;45.00
18815;DHT22;76351;44.818;20.462;2024-03-29T04:42:35;18.10;45.60
18815;DHT22;76351;44.818;20.462;2024-03-29T04:45:02;18.00;45.10
18815;DHT22;76351;44.818;20.462;2024-03-29T04:47:30;18.00;45.10
18815;DHT22;76351;44.818;20.462;2024-03-29T04:49:57;18.10;45.30
18815;DHT22;76351;44.818;20.462;2024-03-29T04:52:25;18.00;45.00
18815;DHT22;76351;44.818;20.462;2024-03-29T04:54:53;18.00;45.20
18815;DHT22;76351;44.818;20.462;2024-03-29T04:57:24;18.00;44.70
18815;DHT22;76351;44.818;20.462;2024-03-29T04:59:52;18.00;45.60
18815;DHT22;76351;44.818;20.462;2024-03-29T05:02:21;18.00;45.10
18815;DHT22;76351;44.818;20.462;2024-03-29T05:04:48;18.00;44.90
18815;DHT22;76351;44.818;20.462;2024-03-29T05:07:16;18.00;45.60
18815;DHT22;76351;44.818;20.462;2024-03-29T05:09:43;18.00;45.60
18815;DHT22;76351;44.818;20.462;2024-03-29T05:12:11;18.00;45.60
18815;DHT22;76351;44.818;20.462;2024-03-29T05:14:40;18.10;45.20
18815;DHT22;76351;44.818;20.462;2024-03-29T05:17:07;18.10;45.60
18815;DHT22;76351;44.818;20.462;2024-03-29T05:19:34;18.20;44.90
18815;DHT22;76351;44.818;20.462;2024-03-29T05:22:02;18.30;45.30
18815;DHT22;76351;44.818;20.462;2024-03-29T05:24:29;18.30;45.20
18815;DHT22;76351;44.818;20.462;2024-03-29T05:26:57;18.40;45.00
18815;DHT22;76351;44.818;20.462;2024-03-29T05:29:27;18.40;45.10
18815;DHT22;76351;44.818;20.462;2024-03-29T05:31:56;18.50;44.10
18815;DHT22;76351;44.818;20.462;2024-03-29T05:34:23;18.50;44.70
18815;DHT22;76351;44.818;20.462;2024-03-29T05:36:51;18.60;44.80
18815;DHT22;76351;44.818;20.462;2024-03-29T05:39:38;18.60;43.90
18815;DHT22;76351;44.818;20.462;2024-03-29T05:42:07;18.60;43.90
18815;DHT22;76351;44.818;20.462;2024-03-29T05:44:35;18.70;44.50
18815;DHT22;76351;44.818;20.462;2024-03-29T05:47:15;18.70;44.20
18815;DHT22;76351;44.818;20.462;2024-03-29T05:49:43;18.70;44.80
18815;DHT22;76351;44.818;20.462;2024-03-29T05:52:11;18.80;44.60
18815;DHT22;76351;44.818;20.462;2024-03-29T05:54:39;18.80;44.60
18815;DHT22;76351;44.818;20.462;2024-03-29T05:57:07;18.80;44.70
18815;DHT22;76351;44.818;20.462;2024-03-29T05:59:37;18.80;44.20
18815;DHT22;76351;44.818;20.462;2024-03-29T06:02:06;18.90;44.90
18815;DHT22;76351;44.818;20.462;2024-03-29T06:04:34;18.90;45.00
18815;DHT22;76351;44.818;20.462;2024-03-29T06:07:04;19.00;45.00
18815;DHT22;76351;44.818;20.462;2024-03-29T06:09:34;19.00;45.10
18815;DHT22;76351;44.818;20.462;2024-03-29T06:12:16;19.10;44.80
18815;DHT22;76351;44.818;20.462;2024-03-29T06:15:11;19.10;44.70
18815;DHT22;76351;44.818;20.462;2024-03-29T06:18:00;19.20;43.90
18815;DHT22;76351;44.818;20.462;2024-03-29T06:20:28;19.20;44.30
18815;DHT22;76351;44.818;20.462;2024-03-29T06:22:55;19.30;44.60
18815;DHT22;76351;44.818;20.462;2024-03-29T06:25:23;19.30;44.70
18815;DHT22;76351;44.818;20.462;2024-03-29T06:27:50;19.40;44.20
18815;DHT22;76351;44.818;20.462;2024-03-29T06:30:19;19.50;45.20
18815;DHT22;76351;44.818;20.462;2024-03-29T06:32:47;19.50;43.60
18815;DHT22;76351;44.818;20.462;2024-03-29T06:35:16;19.60;44.00
18815;DHT22;76351;44.818;20.462;2024-03-29T06:37:46;19.60;44.50
18815;DHT22;76351;44.818;20.462;2024-03-29T06:40:14;19.70;44.00
18815;DHT22;76351;44.818;20.462;2024-03-29T06:42:41;19.70;44.00
18815;DHT22;76351;44.818;20.462;2024-03-29T06:45:09;19.80;44.30
18815;DHT22;76351;44.818;20.462;2024-03-29T06:47:36;19.90;44.30
18815;DHT22;76351;44.818;20.462;2024-03-29T06:50:05;19.90;43.90
18815;DHT22;76351;44.818;20.462;2024-03-29T06:52:34;20.00;44.00
18815;DHT22;76351;44.818;20.462;2024-03-29T06:55:02;20.10;43.60
18815;DHT22;76351;44.818;20.462;2024-03-29T06:57:34;20.20;44.40
18815;DHT22;76351;44.818;20.462;2024-03-29T07:00:02;20.30;44.00
18815;DHT22;76351;44.818;20.462;2024-03-29T07:02:30;20.30;43.50
18815;DHT22;76351;44.818;20.462;2024-03-29T07:04:58;20.40;43.70
18815;DHT22;76351;44.818;20.462;2024-03-29T07:07:31;20.50;43.40
18815;DHT22;76351;44.818;20.462;2024-03-29T07:10:00;20.50;43.70
18815;DHT22;76351;44.818;20.462;2024-03-29T07:12:28;20.50;44.00
18815;DHT22;76351;44.818;20.462;2024-03-29T07:14:56;20.60;43.80
18815;DHT22;76351;44.818;20.462;2024-03-29T07:17:23;20.70;43.60
18815;DHT22;76351;44.818;20.462;2024-03-29T07:19:51;20.70;43.30
18815;DHT22;76351;44.818;20.462;2024-03-29T07:22:19;20.80;43.00
18815;DHT22;76351;44.818;20.462;2024-03-29T07:24:47;20.90;43.30
18815;DHT22;76351;44.818;20.462;2024-03-29T07:27:16;20.90;43.00
18815;DHT22;76351;44.818;20.462;2024-03-29T07:29:45;20.90;43.50
18815;DHT22;76351;44.818;20.462;2024-03-29T07:32:13;21.00;43.60
18815;DHT22;76351;44.818;20.462;2024-03-29T07:34:41;21.10;44.20
18815;DHT22;76351;44.818;20.462;2024-03-29T07:37:09;21.10;43.40
18815;DHT22;76351;44.818;20.462;2024-03-29T07:39:41;21.20;43.40
18815;DHT22;76351;44.818;20.462;2024-03-29T07:42:08;21.30;43.60
18815;DHT22;76351;44.818;20.462;2024-03-29T07:44:37;21.30;43.40
18815;DHT22;76351;44.818;20.462;2024-03-29T07:47:05;21.30;43.50
18815;DHT22;76351;44.818;20.462;2024-03-29T07:49:32;21.40;42.60
18815;DHT22;76351;44.818;20.462;2024-03-29T07:52:00;21.40;43.50
18815;DHT22;76351;44.818;20.462;2024-03-29T07:54:31;21.50;43.10
18815;DHT22;76351;44.818;20.462;2024-03-29T07:56:59;21.60;43.30
18815;DHT22;76351;44.818;20.462;2024-03-29T07:59:28;21.60;43.20
18815;DHT22;76351;44.818;20.462;2024-03-29T08:02:15;21.70;42.60
18815;DHT22;76351;44.818;20.462;2024-03-29T08:05:05;21.80;42.80
18815;DHT22;76351;44.818;20.462;2024-03-29T08:07:36;21.80;41.00
18815;DHT22;76351;44.818;20.462;2024-03-29T08:10:09;21.90;42.00
18815;DHT22;76351;44.818;20.462;2024-03-29T08:12:55;22.00;43.10
18815;DHT22;76351;44.818;20.462;2024-03-29T08:15:23;22.00;42.30
18815;DHT22;76351;44.818;20.462;2024-03-29T08:17:53;22.10;42.70
18815;DHT22;76351;44.818;20.462;2024-03-29T08:20:20;22.10;42.20
18815;DHT22;76351;44.818;20.462;2024-03-29T08:22:50;22.20;42.20
18815;DHT22;76351;44.818;20.462;2024-03-29T08:25:19;22.20;42.30
18815;DHT22;76351;44.818;20.462;2024-03-29T08:27:47;22.20;42.30
18815;DHT22;76351;44.818;20.462;2024-03-29T08:30:17;22.30;43.00
18815;DHT22;76351;44.818;20.462;2024-03-29T08:32:44;22.30;42.30
18815;DHT22;76351;44.818;20.462;2024-03-29T08:35:13;22.40;41.60
18815;DHT22;76351;44.818;20.462;2024-03-29T08:37:41;22.40;42.20
18815;DHT22;76351;44.818;20.462;2024-03-29T08:40:09;22.50;42.20
18815;DHT22;76351;44.818;20.462;2024-03-29T08:42:36;22.50;42.50
18815;DHT22;76351;44.818;20.462;2024-03-29T08:45:06;22.60;41.50
18815;DHT22;76351;44.818;20.462;2024-03-29T08:47:36;22.60;42.40
18815;DHT22;76351;44.818;20.462;2024-03-29T08:50:04;22.70;41.60
18815;DHT22;76351;44.818;20.462;2024-03-29T08:52:33;22.80;42.10
18815;DHT22;76351;44.818;20.462;2024-03-29T08:55:00;22.90;41.70
18815;DHT22;76351;44.818;20.462;2024-03-29T08:57:28;23.00;40.80
18815;DHT22;76351;44.818;20.462;2024-03-29T08:59:59;23.10;39.90
18815;DHT22;76351;44.818;20.462;2024-03-29T09:03:00;23.30;39.80
18815;DHT22;76351;44.818;20.462;2024-03-29T09:05:33;23.40;39.50
18815;DHT22;76351;44.818;20.462;2024-03-29T09:08:05;23.50;40.20
18815;DHT22;76351;44.818;20.462;2024-03-29T09:10:36;23.60;40.20
18815;DHT22;76351;44.818;20.462;2024-03-29T09:13:40;23.70;40.20
18815;DHT22;76351;44.818;20.462;2024-03-29T09:16:11;23.80;40.00
18815;DHT22;76351;44.818;20.462;2024-03-29T09:18:48;24.00;40.00
18815;DHT22;76351;44.818;20.462;2024-03-29T09:21:17;24.10;39.60
18815;DHT22;76351;44.818;20.462;2024-03-29T09:23:50;24.20;39.90
18815;DHT22;76351;44.818;20.462;2024-03-29T09:26:22;24.30;39.10
18815;DHT22;76351;44.818;20.462;2024-03-29T09:29:38;24.50;39.30
18815;DHT22;76351;44.818;20.462;2024-03-29T09:32:16;24.70;39.60
18815;DHT22;76351;44.818;20.462;2024-03-29T09:34:46;24.90;38.50
18815;DHT22;76351;44.818;20.462;2024-03-29T09:37:16;25.00;38.20
18815;DHT22;76351;44.818;20.462;2024-03-29T09:39:53;25.20;37.70
18815;DHT22;76351;44.818;20.462;2024-03-29T09:42:24;25.30;38.50
18815;DHT22;76351;44.818;20.462;2024-03-29T09:45:07;25.50;37.30
18815;DHT22;76351;44.818;20.462;2024-03-29T09:47:37;25.70;37.80
18815;DHT22;76351;44.818;20.462;2024-03-29T09:50:10;25.80;37.50
18815;DHT22;76351;44.818;20.462;2024-03-29T09:52:45;26.00;36.60
18815;DHT22;76351;44.818;20.462;2024-03-29T09:55:19;26.10;35.40
18815;DHT22;76351;44.818;20.462;2024-03-29T09:58:00;26.20;35.90
18815;DHT22;76351;44.818;20.462;2024-03-29T10:00:32;26.40;34.70
18815;DHT22;76351;44.818;20.462;2024-03-29T10:03:15;26.50;35.20
18815;DHT22;76351;44.818;20.462;2024-03-29T10:05:46;26.70;35.60
18815;DHT22;76351;44.818;20.462;2024-03-29T10:08:15;26.80;35.50
18815;DHT22;76351;44.818;20.462;2024-03-29T10:10:46;26.90;35.40
18815;DHT22;76351;44.818;20.462;2024-03-29T10:13:15;27.10;33.60
18815;DHT22;76351;44.818;20.462;2024-03-29T10:15:42;27.30;34.50
18815;DHT22;76351;44.818;20.462;2024-03-29T10:18:25;27.50;34.80
18815;DHT22;76351;44.818;20.462;2024-03-29T10:21:07;27.80;34.20
18815;DHT22;76351;44.818;20.462;2024-03-29T10:23:40;28.10;33.60
18815;DHT22;76351;44.818;20.462;2024-03-29T10:26:13;28.40;34.00
18815;DHT22;76351;44.818;20.462;2024-03-29T10:28:46;28.80;32.00
18815;DHT22;76351;44.818;20.462;2024-03-29T10:31:20;29.30;32.60
18815;DHT22;76351;44.818;20.462;2024-03-29T10:33:53;29.70;33.20
18815;DHT22;76351;44.818;20.462;2024-03-29T10:36:25;30.10;31.90
18815;DHT22;76351;44.818;20.462;2024-03-29T10:38:56;30.50;30.40
18815;DHT22;76351;44.818;20.462;2024-03-29T10:41:29;30.80;30.30
18815;DHT22;76351;44.818;20.462;2024-03-29T10:44:32;31.00;30.60
18815;DHT22;76351;44.818;20.462;2024-03-29T10:47:18;31.30;29.90
18815;DHT22;76351;44.818;20.462;2024-03-29T10:49:50;31.50;29.40
18815;DHT22;76351;44.818;20.462;2024-03-29T10:52:18;31.70;29.50
18815;DHT22;76351;44.818;20.462;2024-03-29T10:54:48;32.00;30.00
18815;DHT22;76351;44.818;20.462;2024-03-29T10:57:28;32.20;29.60
18815;DHT22;76351;44.818;20.462;2024-03-29T11:00:16;32.40;28.50
18815;DHT22;76351;44.818;20.462;2024-03-29T11:02:55;32.70;29.20
18815;DHT22;76351;44.818;20.462;2024-03-29T11:05:28;32.90;28.50
18815;DHT22;76351;44.818;20.462;2024-03-29T11:08:04;33.20;28.30
18815;DHT22;76351;44.818;20.462;2024-03-29T11:10:41;33.30;27.20
18815;DHT22;76351;44.818;20.462;2024-03-29T11:13:22;33.40;26.90
18815;DHT22;76351;44.818;20.462;2024-03-29T11:15:54;33.40;26.70
18815;DHT22;76351;44.818;20.462;2024-03-29T11:18:23;33.40;27.20
18815;DHT22;76351;44.818;20.462;2024-03-29T11:21:51;33.30;27.10
18815;DHT22;76351;44.818;20.462;2024-03-29T11:24:15;33.20;26.20
18815;DHT22;76351;44.818;20.462;2024-03-29T11:26:55;33.20;26.70
18815;DHT22;76351;44.818;20.462;2024-03-29T11:29:56;33.10;26.40
18815;DHT22;76351;44.818;20.462;2024-03-29T11:32:35;33.10;25.40
18815;DHT22;76351;44.818;20.462;2024-03-29T11:35:14;33.00;25.90
18815;DHT22;76351;44.818;20.462;2024-03-29T11:38:04;32.80;26.10
18815;DHT22;76351;44.818;20.462;2024-03-29T11:40:35;32.60;26.40
18815;DHT22;76351;44.818;20.462;2024-03-29T11:43:09;32.40;25.60
18815;DHT22;76351;44.818;20.462;2024-03-29T11:45:44;32.20;26.00
18815;DHT22;76351;44.818;20.462;2024-03-29T11:48:22;32.00;25.60
18815;DHT22;76351;44.818;20.462;2024-03-29T11:55:02;31.40;25.90
18815;DHT22;76351;44.818;20.462;2024-03-29T11:58:08;31.10;27.00
18815;DHT22;76351;44.818;20.462;2024-03-29T12:00:43;30.80;26.60
18815;DHT22;76351;44.818;20.462;2024-03-29T12:03:15;30.60;26.40
18815;DHT22;76351;44.818;20.462;2024-03-29T12:06:00;30.40;27.00
18815;DHT22;76351;44.818;20.462;2024-03-29T12:08:29;30.20;27.00
18815;DHT22;76351;44.818;20.462;2024-03-29T12:10:59;30.00;27.50
18815;DHT22;76351;44.818;20.462;2024-03-29T12:13:27;29.90;27.00
18815;DHT22;76351;44.818;20.462;2024-03-29T12:15:58;29.80;27.40
18815;DHT22;76351;44.818;20.462;2024-03-29T12:18:41;29.70;27.80
18815;DHT22;76351;44.818;20.462;2024-03-29T12:21:13;29.60;27.70
18815;DHT22;76351;44.818;20.462;2024-03-29T12:23:47;29.40;27.70
18815;DHT22;76351;44.818;20.462;2024-03-29T12:26:22;29.30;27.00
18815;DHT22;76351;44.818;20.462;2024-03-29T12:28:56;29.20;27.60
18815;DHT22;76351;44.818;20.462;2024-03-29T12:31:27;29.10;27.50
18815;DHT22;76351;44.818;20.462;2024-03-29T12:33:58;29.00;27.90
18815;DHT22;76351;44.818;20.462;2024-03-29T12:36:39;29.00;27.40
18815;DHT22;76351;44.818;20.462;2024-03-29T12:39:14;28.90;27.90
18815;DHT22;76351;44.818;20.462;2024-03-29T12:41:48;28.90;27.60
18815;DHT22;76351;44.818;20.462;2024-03-29T12:44:44;28.90;27.60
18815;DHT22;76351;44.818;20.462;2024-03-29T12:47:17;28.90;28.40
18815;DHT22;76351;44.818;20.462;2024-03-29T12:49:52;28.90;27.50
18815;DHT22;76351;44.818;20.462;2024-03-29T12:52:42;28.90;27.30
18815;DHT22;76351;44.818;20.462;2024-03-29T12:55:14;28.90;28.10
18815;DHT22;76351;44.818;20.462;2024-03-29T12:57:47;29.00;27.70
18815;DHT22;76351;44.818;20.462;2024-03-29T13:04:00;28.90;27.60
18815;DHT22;76351;44.818;20.462;2024-03-29T13:06:35;28.90;27.40
18815;DHT22;76351;44.818;20.462;2024-03-29T13:09:30;28.90;27.60
18815;DHT22;76351;44.818;20.462;2024-03-29T13:11:59;28.80;27.80
18815;DHT22;76351;44.818;20.462;2024-03-29T13:14:27;28.80;26.70
18815;DHT22;76351;44.818;20.462;2024-03-29T13:16:55;28.80;26.70
18815;DHT22;76351;44.818;20.462;2024-03-29T13:19:25;28.80;27.00
18815;DHT22;76351;44.818;20.462;2024-03-29T13:21:53;28.80;27.40
18815;DHT22;76351;44.818;20.462;2024-03-29T13:24:21;28.70;27.30
18815;DHT22;76351;44.818;20.462;2024-03-29T13:26:59;28.70;27.40
18815;DHT22;76351;44.818;20.462;2024-03-29T13:29:30;28.70;27.00
18815;DHT22;76351;44.818;20.462;2024-03-29T13:32:24;28.70;26.90
18815;DHT22;76351;44.818;20.462;2024-03-29T13:34:55;28.80;26.60
18815;DHT22;76351;44.818;20.462;2024-03-29T13:37:26;28.70;27.80
18815;DHT22;76351;44.818;20.462;2024-03-29T13:39:55;28.80;27.60
18815;DHT22;76351;44.818;20.462;2024-03-29T13:42:23;28.80;27.80
18815;DHT22;76351;44.818;20.462;2024-03-29T13:44:51;28.80;27.30
18815;DHT22;76351;44.818;20.462;2024-03-29T13:47:19;28.80;27.70
18815;DHT22;76351;44.818;20.462;2024-03-29T13:49:47;28.70;27.30
18815;DHT22;76351;44.818;20.462;2024-03-29T13:52:21;28.70;27.30
18815;DHT22;76351;44.818;20.462;2024-03-29T13:54:48;28.60;27.30
18815;DHT22;76351;44.818;20.462;2024-03-29T13:57:17;28.60;27.50
18815;DHT22;76351;44.818;20.462;2024-03-29T13:59:45;28.50;27.20
18815;DHT22;76351;44.818;20.462;2024-03-29T14:02:14;28.40;27.50
18815;DHT22;76351;44.818;20.462;2024-03-29T14:04:42;28.30;27.80
18815;DHT22;76351;44.818;20.462;2024-03-29T14:07:14;28.20;27.30
18815;DHT22;76351;44.818;20.462;2024-03-29T14:09:45;28.10;27.80
18815;DHT22;76351;44.818;20.462;2024-03-29T14:12:13;28.00;27.70
18815;DHT22;76351;44.818;20.462;2024-03-29T14:14:42;28.00;27.60
18815;DHT22;76351;44.818;20.462;2024-03-29T14:17:12;27.90;26.90
18815;DHT22;76351;44.818;20.462;2024-03-29T14:19:42;27.80;27.60
18815;DHT22;76351;44.818;20.462;2024-03-29T14:22:10;27.80;27.60
18815;DHT22;76351;44.818;20.462;2024-03-29T14:24:43;27.80;28.10
18815;DHT22;76351;44.818;20.462;2024-03-29T14:27:14;27.70;28.10
18815;DHT22;76351;44.818;20.462;2024-03-29T14:29:42;27.70;27.40
18815;DHT22;76351;44.818;20.462;2024-03-29T14:32:18;27.70;27.40
18815;DHT22;76351;44.818;20.462;2024-03-29T14:34:52;27.70;27.60
18815;DHT22;76351;44.818;20.462;2024-03-29T14:37:20;27.70;28.40
18815;DHT22;76351;44.818;20.462;2024-03-29T14:39:49;27.70;28.60
18815;DHT22;76351;44.818;20.462;2024-03-29T14:42:19;27.70;28.80
18815;DHT22;76351;44.818;20.462;2024-03-29T14:44:49;27.70;28.30
18815;DHT22;76351;44.818;20.462;2024-03-29T14:47:23;27.70;28.40
18815;DHT22;76351;44.818;20.462;2024-03-29T14:49:58;27.70;28.50
18815;DHT22;76351;44.818;20.462;2024-03-29T14:52:26;27.70;29.10
18815;DHT22;76351;44.818;20.462;2024-03-29T14:54:56;27.70;28.30
18815;DHT22;76351;44.818;20.462;2024-03-29T14:57:37;27.70;28.30
18815;DHT22;76351;44.818;20.462;2024-03-29T15:00:10;27.70;28.60
18815;DHT22;76351;44.818;20.462;2024-03-29T15:02:47;27.60;28.80
18815;DHT22;76351;44.818;20.462;2024-03-29T15:05:21;27.60;28.40
18815;DHT22;76351;44.818;20.462;2024-03-29T15:09:24;27.70;28.40
18815;DHT22;76351;44.818;20.462;2024-03-29T15:12:34;27.70;29.10
18815;DHT22;76351;44.818;20.462;2024-03-29T15:16:00;27.70;29.20
18815;DHT22;76351;44.818;20.462;2024-03-29T15:18:53;27.60;29.40
18815;DHT22;76351;44.818;20.462;2024-03-29T15:30:26;27.60;29.70
18815;DHT22;76351;44.818;20.462;2024-03-29T15:33:21;27.60;28.70
18815;DHT22;76351;44.818;20.462;2024-03-29T15:35:50;27.50;29.20
18815;DHT22;76351;44.818;20.462;2024-03-29T15:38:22;27.50;29.40
18815;DHT22;76351;44.818;20.462;2024-03-29T15:41:18;27.50;29.50
18815;DHT22;76351;44.818;20.462;2024-03-29T15:44:38;27.50;29.10
18815;DHT22;76351;44.818;20.462;2024-03-29T15:47:50;27.50;29.80
18815;DHT22;76351;44.818;20.462;2024-03-29T15:50:40;27.50;30.10
18815;DHT22;76351;44.818;20.462;2024-03-29T15:53:10;27.50;29.60
18815;DHT22;76351;44.818;20.462;2024-03-29T15:55:39;27.40;28.70
18815;DHT22;76351;44.818;20.462;2024-03-29T15:58:12;27.40;29.10
18815;DHT22;76351;44.818;20.462;2024-03-29T16:00:41;27.40;30.30
18815;DHT22;76351;44.818;20.462;2024-03-29T16:03:21;27.40;29.40
18815;DHT22;76351;44.818;20.462;2024-03-29T16:05:52;27.30;29.70